CRB5 weather

Rivière Bell Airport
Quebec, Canada

Public forecast

Using degrees Celsius for public forecast. Weather courtesy of forecast.io.

METAR (pilot weather report)

Closest report is Natashquan Airport, 68.9 nm (127.7 km) NNE. Retrieved 2019/07/17 18:00 UTC (18 minutes ago):

CYNA 171800Z AUTO 17016KT 9SM SCT040 22/15 A2961 RMK SLP027 DENSITY ALT 1200FT

TAF (pilot weather forecast)

Closest forecast is Natashquan Airport, 68.9 nm (127.7 km) NNE. Retrieved 2019/07/17 14:00 UTC (4 hours ago):

TAF CYNA 171338Z 1714/1802 19012G22KT P6SM SCT120 TEMPO 1714/1720 FEW040 BKN100 FM172000 21010KT P6SM FEW020 BKN040 TEMPO 1720/1801 BKN020 BKN040 BECMG 1722/1724 26010KT FM180100 26010KT P6SM SCT040 RMK FCST BASED ON AUTO OBS. NXT FCST BY 172000Z